Time;durP1;ratioP1;P1;durP2;ratioP2;P2;SDS_P1;SDS_P2;PMS_P1;PMS_P2;Temp;Humidity;BMP_temperature;BMP_pressure;BME280_temperature;BME280_humidity;BME280_pressure;Samples;Min_cycle;Max_cycle;Signal;HPM_P1;HPM_P2
2022/01/12 00:01:32;;;;;;;;;;;;;;;3.11;80.52;101717.44;8199279;28;20367;-80
2022/01/12 00:05:33;;;;;;;;;;;;;;;3.09;82.78;101729.50;8182414;28;19977;-80
2022/01/12 00:09:34;;;;;;;;;;;;;;;3.12;83.45;101724.63;8187748;28;20371;-80
2022/01/12 00:13:36;;;;;;;;;;;;;;;3.13;82.70;101720.03;8189751;28;19972;-80
2022/01/12 00:17:37;;;;;;;;;;;;;;;3.01;82.80;101724.84;8180554;28;20359;-79
2022/01/12 00:21:40;;;;;;;;;;;;;;;3.04;84.02;101715.53;8192280;28;19923;-79
2022/01/12 00:25:58;;;;;;;;;;;;;;;3.02;84.14;101718.38;8201217;28;19933;-79
2022/01/12 00:34:20;;;;;;;;;;;;;;;2.90;84.39;101734.06;8172783;28;19926;-81
2022/01/12 00:38:23;;;;;;;;;;;;;;;2.87;85.45;101723.50;8182505;28;19923;-81
2022/01/12 00:42:28;;;;;;;;;;;;;;;2.87;85.29;101734.38;8194885;28;19929;-80
2022/01/12 00:46:30;;;;;;;;;;;;;;;2.80;84.11;101740.59;8175913;28;20013;-80
2022/01/12 00:50:31;;;;;;;;;;;;;;;2.82;84.01;101742.13;8197746;28;19977;-82
2022/01/12 00:54:33;;;;;;;;;;;;;;;2.83;83.58;101740.31;8192912;28;19927;-81
2022/01/12 00:58:34;;;;;;;;;;;;;;;2.83;84.79;101762.94;8188205;28;19922;-81
2022/01/12 01:02:36;;;;;;;;;;;;;;;2.83;84.70;101757.50;8173477;28;19980;-81
2022/01/12 01:06:38;;;;;;;;;;;;;;;2.84;85.19;101752.91;8186763;28;20264;-81
2022/01/12 01:14:49;;;;;;;;;;;;;;;2.83;85.01;101737.59;8182645;28;19934;-81
2022/01/12 01:27:31;;;;;;;;;;;;;;;2.55;85.36;101725.81;8168820;28;19933;-81
2022/01/12 01:31:34;;;;;;;;;;;;;;;2.39;85.40;101715.59;8197216;28;20426;-80
2022/01/12 01:35:37;;;;;;;;;;;;;;;2.22;85.64;101714.50;8189015;28;20284;-81
2022/01/12 01:39:39;;;;;;;;;;;;;;;2.03;85.63;101723.59;8159015;28;20388;-81
2022/01/12 01:44:05;;;;;;;;;;;;;;;1.88;86.26;101734.06;8198562;28;19934;-81
2022/01/12 01:56:46;;;;;;;;;;;;;;;1.45;87.15;101724.53;8190935;28;19973;-81
2022/01/12 02:00:48;;;;;;;;;;;;;;;1.28;87.53;101726.13;8179698;28;19933;-80
2022/01/12 02:04:55;;;;;;;;;;;;;;;1.10;88.22;101727.78;8182031;28;19926;-80
2022/01/12 02:08:56;;;;;;;;;;;;;;;0.98;88.28;101739.78;8188379;28;19969;-80
2022/01/12 02:13:13;;;;;;;;;;;;;;;0.85;88.43;101735.47;8179230;28;19926;-81
2022/01/12 02:17:20;;;;;;;;;;;;;;;0.77;88.95;101738.03;8175264;28;19929;-80
2022/01/12 02:50:38;;;;;;;;;;;;;;;0.33;90.57;101761.88;8205941;28;20343;-79
2022/01/12 02:50:43;;;;;;;;;;;;;;;0.28;90.40;101742.44;8203005;28;19930;-80
2022/01/12 02:56:21;;;;;;;;;;;;;;;0.18;90.74;101755.09;8194270;28;19930;-80
2022/01/12 03:00:27;;;;;;;;;;;;;;;0.13;90.99;101760.91;8180609;28;19969;-80
2022/01/12 03:04:29;;;;;;;;;;;;;;;0.09;91.49;101764.88;8182808;28;20005;-80
2022/01/12 03:08:37;;;;;;;;;;;;;;;0.05;91.44;101755.28;8174820;28;19930;-80
2022/01/12 03:12:40;;;;;;;;;;;;;;;0.02;91.91;101746.56;8168464;28;19930;-81
2022/01/12 03:16:42;;;;;;;;;;;;;;;-0.02;92.13;101746.84;8161455;28;19968;-81
2022/01/12 03:20:53;;;;;;;;;;;;;;;-0.03;91.78;101755.97;8174617;28;20017;-80
2022/01/12 03:24:55;;;;;;;;;;;;;;;-0.05;92.40;101766.06;8172866;28;19958;-80
2022/01/12 03:28:57;;;;;;;;;;;;;;;-0.07;92.36;101773.47;8204694;28;19922;-79
2022/01/12 03:33:33;;;;;;;;;;;;;;;-0.11;91.93;101780.16;8181806;28;19927;-80
2022/01/12 03:37:54;;;;;;;;;;;;;;;-0.13;93.11;101790.25;8174229;28;19926;-79
2022/01/12 03:41:55;;;;;;;;;;;;;;;-0.14;92.74;101788.56;8187940;28;19926;-79
2022/01/12 03:45:57;;;;;;;;;;;;;;;-0.16;92.65;101765.28;8177438;28;19923;-80
2022/01/12 03:49:58;;;;;;;;;;;;;;;-0.18;93.11;101786.22;8175075;28;20025;-80
2022/01/12 03:54:00;;;;;;;;;;;;;;;-0.19;92.79;101796.19;8197433;28;19923;-80
2022/01/12 03:58:03;;;;;;;;;;;;;;;-0.20;93.43;101813.47;8162521;28;19926;-80
2022/01/12 04:02:04;;;;;;;;;;;;;;;-0.23;92.76;101813.72;8176779;28;19981;-80
2022/01/12 04:10:26;;;;;;;;;;;;;;;-0.25;93.50;101796.72;8182854;28;20013;-80
2022/01/12 04:14:28;;;;;;;;;;;;;;;-0.25;93.60;101786.75;8183072;28;19930;-81
2022/01/12 04:18:29;;;;;;;;;;;;;;;-0.21;93.83;101794.63;8197143;28;19929;-80
2022/01/12 04:26:51;;;;;;;;;;;;;;;-0.17;93.71;101794.22;8194218;28;19988;-79
2022/01/12 04:30:53;;;;;;;;;;;;;;;-0.15;94.03;101791.38;8198475;28;19938;-79
2022/01/12 04:34:54;;;;;;;;;;;;;;;-0.11;93.82;101791.00;8191727;28;19953;-79
2022/01/12 04:38:56;;;;;;;;;;;;;;;-0.01;93.78;101793.75;8196887;28;20017;-79
2022/01/12 04:42:57;;;;;;;;;;;;;;;0.15;93.67;101804.13;8169080;28;19953;-79
2022/01/12 04:47:06;;;;;;;;;;;;;;;0.32;93.33;101808.94;8210422;28;19922;-79
2022/01/12 04:51:08;;;;;;;;;;;;;;;0.43;93.43;101805.31;8188013;28;19953;-79
2022/01/12 04:55:10;;;;;;;;;;;;;;;0.44;93.08;101799.72;8164080;28;19923;-78
2022/01/12 04:59:11;;;;;;;;;;;;;;;0.38;93.28;101788.56;8173495;28;19927;-79
2022/01/12 05:07:44;;;;;;;;;;;;;;;0.19;92.96;101792.91;8185050;28;20021;-79
2022/01/12 05:16:06;;;;;;;;;;;;;;;0.03;94.04;101783.50;8185885;28;20368;-80
2022/01/12 05:20:09;;;;;;;;;;;;;;;-0.05;93.96;101785.03;8194613;28;19926;-79
2022/01/12 05:24:10;;;;;;;;;;;;;;;-0.13;94.20;101795.69;8186311;28;19989;-79
2022/01/12 05:28:14;;;;;;;;;;;;;;;-0.20;94.15;101797.19;8179364;28;19926;-80
2022/01/12 05:32:15;;;;;;;;;;;;;;;-0.24;94.64;101791.19;8188323;28;20414;-80
2022/01/12 05:36:18;;;;;;;;;;;;;;;-0.27;95.12;101790.56;8173478;28;19926;-79
2022/01/12 05:40:22;;;;;;;;;;;;;;;-0.24;94.57;101798.44;8179078;28;20002;-79
2022/01/12 05:44:25;;;;;;;;;;;;;;;-0.27;94.27;101791.47;8181638;28;19926;-79
2022/01/12 05:52:48;;;;;;;;;;;;;;;-0.21;95.01;101794.63;8201139;28;19938;-79
2022/01/12 05:56:51;;;;;;;;;;;;;;;-0.18;94.98;101811.47;8187191;28;19922;-79
2022/01/12 06:00:54;;;;;;;;;;;;;;;-0.11;95.01;101809.97;8189699;28;20335;-80
2022/01/12 06:04:55;;;;;;;;;;;;;;;-0.05;94.82;101822.13;8185551;28;19926;-79
2022/01/12 06:08:57;;;;;;;;;;;;;;;0.02;95.16;101817.88;8200428;28;19927;-79
2022/01/12 06:12:58;;;;;;;;;;;;;;;0.09;95.48;101829.06;8161773;28;19926;-79
2022/01/12 06:17:00;;;;;;;;;;;;;;;0.12;95.00;101837.81;8196915;28;19922;-79
2022/01/12 06:21:02;;;;;;;;;;;;;;;0.15;94.70;101842.06;8155891;28;19934;-80
2022/01/12 06:25:16;;;;;;;;;;;;;;;0.20;94.96;101853.41;8186337;28;19955;-80
2022/01/12 06:33:20;;;;;;;;;;;;;;;0.26;94.83;101861.00;8189790;28;19926;-80
2022/01/12 06:37:24;;;;;;;;;;;;;;;0.19;94.77;101847.13;8199167;28;19923;-80
2022/01/12 06:41:26;;;;;;;;;;;;;;;0.13;94.55;101860.34;8181598;28;19926;-79
2022/01/12 06:45:30;;;;;;;;;;;;;;;0.07;94.61;101871.72;8193534;28;19930;-79
2022/01/12 06:49:33;;;;;;;;;;;;;;;0.01;94.49;101869.53;8174209;28;19957;-79
2022/01/12 06:53:35;;;;;;;;;;;;;;;-0.02;94.91;101886.91;8190556;28;19922;-78
2022/01/12 06:57:37;;;;;;;;;;;;;;;-0.07;94.85;101884.56;8172421;28;19973;-79
2022/01/12 07:01:39;;;;;;;;;;;;;;;-0.08;94.50;101882.88;8169558;28;19933;-79
2022/01/12 07:05:42;;;;;;;;;;;;;;;-0.12;94.39;101862.44;8162642;28;19974;-80
2022/01/12 07:09:44;;;;;;;;;;;;;;;-0.16;94.53;101855.56;8184448;28;20577;-79
2022/01/12 07:13:53;;;;;;;;;;;;;;;-0.21;94.24;101856.94;8177650;28;19948;-79
2022/01/12 07:17:54;;;;;;;;;;;;;;;-0.25;94.53;101886.13;8189405;28;19922;-79
2022/01/12 07:21:57;;;;;;;;;;;;;;;-0.27;94.38;101904.38;8170173;28;20239;-79
2022/01/12 07:25:58;;;;;;;;;;;;;;;-0.26;94.48;101914.22;8168959;28;19926;-79
2022/01/12 07:30:00;;;;;;;;;;;;;;;-0.27;94.42;101916.09;8167702;28;19926;-80
2022/01/12 07:34:02;;;;;;;;;;;;;;;-0.26;94.51;101911.53;8184324;28;20641;-80
2022/01/12 07:38:03;;;;;;;;;;;;;;;-0.25;94.83;101913.22;8189171;28;19934;-79
2022/01/12 07:42:05;;;;;;;;;;;;;;;-0.21;94.53;101917.41;8173421;28;19977;-79
2022/01/12 07:46:08;;;;;;;;;;;;;;;-0.15;94.74;101946.72;8188669;28;20376;-79
2022/01/12 07:50:10;;;;;;;;;;;;;;;-0.10;94.75;101957.16;8195992;28;20372;-79
2022/01/12 07:54:11;;;;;;;;;;;;;;;-0.05;94.80;101963.91;8189375;28;19926;-79
2022/01/12 07:58:13;;;;;;;;;;;;;;;-0.06;94.33;101967.63;8194914;28;19927;-79
2022/01/12 08:02:15;;;;;;;;;;;;;;;-0.05;94.01;101971.19;8199014;28;19953;-79
2022/01/12 08:06:17;;;;;;;;;;;;;;;0.03;94.19;101970.53;8178476;28;19926;-79
2022/01/12 08:10:19;;;;;;;;;;;;;;;0.10;94.25;101963.63;8173672;28;19931;-79
2022/01/12 08:14:20;;;;;;;;;;;;;;;0.19;94.42;101970.97;8190754;28;19970;-79
2022/01/12 08:18:25;;;;;;;;;;;;;;;0.25;95.10;101980.47;8196920;28;19923;-79
2022/01/12 08:22:28;;;;;;;;;;;;;;;0.28;94.14;101989.19;8182215;28;19976;-79
2022/01/12 08:26:30;;;;;;;;;;;;;;;0.24;93.88;101993.16;8194117;28;19981;-80
2022/01/12 08:30:34;;;;;;;;;;;;;;;0.20;94.29;101983.53;8174124;28;19934;-79
2022/01/12 08:34:37;;;;;;;;;;;;;;;0.17;94.82;101992.78;8191437;28;19933;-79
2022/01/12 08:38:40;;;;;;;;;;;;;;;0.17;94.90;101994.66;8196023;28;19923;-80
2022/01/12 08:42:42;;;;;;;;;;;;;;;0.18;94.88;101991.81;8184621;28;19930;-79
2022/01/12 08:46:43;;;;;;;;;;;;;;;0.17;94.56;101990.06;8191974;28;19930;-80
2022/01/12 08:50:45;;;;;;;;;;;;;;;0.17;94.72;102002.78;8171281;28;19970;-80
2022/01/12 08:54:46;;;;;;;;;;;;;;;0.21;94.52;102015.09;8194076;28;19923;-79
2022/01/12 08:58:49;;;;;;;;;;;;;;;0.31;94.94;102018.75;8193687;28;19922;-80
2022/01/12 09:02:51;;;;;;;;;;;;;;;0.40;94.47;102022.56;8200460;28;19922;-79
2022/01/12 09:06:53;;;;;;;;;;;;;;;0.43;94.12;102027.72;8175156;28;19930;-79
2022/01/12 09:10:55;;;;;;;;;;;;;;;0.47;94.46;102021.03;8195486;28;20284;-79
2022/01/12 09:14:56;;;;;;;;;;;;;;;0.56;94.13;102016.66;8162610;28;19927;-79
2022/01/12 09:18:58;;;;;;;;;;;;;;;0.71;93.51;102019.94;8195006;28;19923;-79
2022/01/12 09:22:59;;;;;;;;;;;;;;;0.89;93.21;102027.38;8191516;28;19934;-79
2022/01/12 09:27:01;;;;;;;;;;;;;;;1.12;91.37;102016.34;8188970;28;20041;-80
2022/01/12 09:31:02;;;;;;;;;;;;;;;1.39;91.34;102021.19;8168859;28;19938;-80
2022/01/12 09:35:05;;;;;;;;;;;;;;;1.55;88.62;102009.84;8198395;28;19951;-81
2022/01/12 09:39:07;;;;;;;;;;;;;;;1.72;86.48;102016.47;8181626;29;19926;-79
2022/01/12 09:43:08;;;;;;;;;;;;;;;1.73;83.48;102010.91;8176986;28;20319;-79
2022/01/12 09:47:10;;;;;;;;;;;;;;;1.89;83.26;102015.81;8194197;28;19927;-79
2022/01/12 09:51:12;;;;;;;;;;;;;;;2.10;84.10;102023.88;8180052;28;19940;-79
2022/01/12 09:55:13;;;;;;;;;;;;;;;2.39;83.42;102036.66;8188698;28;19922;-79
2022/01/12 09:59:16;;;;;;;;;;;;;;;2.57;81.49;102037.66;8174300;28;19926;-80
2022/01/12 10:03:18;;;;;;;;;;;;;;;2.86;82.30;102040.38;8189809;28;19926;-79
2022/01/12 10:07:21;;;;;;;;;;;;;;;3.04;80.87;102039.63;8161057;28;19923;-80
2022/01/12 10:11:23;;;;;;;;;;;;;;;3.23;80.47;102050.47;8176289;28;19974;-80
2022/01/12 10:15:29;;;;;;;;;;;;;;;3.36;78.31;102052.88;8174658;28;20368;-79
2022/01/12 10:19:32;;;;;;;;;;;;;;;3.48;76.68;102053.56;8199233;28;19922;-80
2022/01/12 10:23:39;;;;;;;;;;;;;;;3.84;78.25;102040.94;8196202;28;19926;-80
2022/01/12 10:27:40;;;;;;;;;;;;;;;3.98;76.29;102043.13;8193772;28;19973;-80
2022/01/12 10:31:42;;;;;;;;;;;;;;;4.25;76.01;102044.13;8194597;28;20000;-80
2022/01/12 10:35:56;;;;;;;;;;;;;;;4.22;76.99;102048.03;8185975;28;19929;-80
2022/01/12 10:39:57;;;;;;;;;;;;;;;4.19;75.74;102044.75;8197092;28;20717;-80
2022/01/12 10:43:58;;;;;;;;;;;;;;;4.03;74.60;102029.06;8192976;28;20287;-79
2022/01/12 10:48:02;;;;;;;;;;;;;;;3.98;74.46;102029.50;8192494;28;20383;-80
2022/01/12 10:52:06;;;;;;;;;;;;;;;4.01;75.63;102025.63;8185330;29;19976;-81
2022/01/12 10:56:26;;;;;;;;;;;;;;;3.97;75.48;102016.88;8190210;28;19926;-80
2022/01/12 11:00:30;;;;;;;;;;;;;;;3.97;74.99;102025.06;8198752;28;19930;-80
2022/01/12 11:04:32;;;;;;;;;;;;;;;3.98;72.21;102024.03;8197329;28;19922;-81
2022/01/12 11:08:35;;;;;;;;;;;;;;;4.00;73.04;102022.03;8194967;28;19929;-81
2022/01/12 11:12:38;;;;;;;;;;;;;;;4.13;73.15;102034.44;8187845;28;20407;-80
2022/01/12 11:16:40;;;;;;;;;;;;;;;4.20;73.00;102032.84;8177002;28;19922;-80
2022/01/12 11:20:42;;;;;;;;;;;;;;;4.06;71.91;102042.41;8190908;28;19931;-80
2022/01/12 11:24:44;;;;;;;;;;;;;;;4.06;70.63;102035.06;8196641;28;20026;-81
2022/01/12 11:28:47;;;;;;;;;;;;;;;4.17;70.95;102027.69;8194825;28;19949;-80
2022/01/12 11:32:57;;;;;;;;;;;;;;;4.26;72.06;102029.50;8200576;28;19926;-80
2022/01/12 11:36:58;;;;;;;;;;;;;;;4.46;71.34;102022.00;8192061;28;19927;-80
2022/01/12 11:41:09;;;;;;;;;;;;;;;4.68;69.27;102023.41;8187905;28;19947;-80
2022/01/12 11:45:18;;;;;;;;;;;;;;;5.05;69.04;102025.06;8202279;28;19975;-79
2022/01/12 11:49:27;;;;;;;;;;;;;;;5.06;67.33;102011.25;8191538;28;19923;-80
2022/01/12 11:53:31;;;;;;;;;;;;;;;5.24;65.91;102012.06;8184282;28;19942;-81
2022/01/12 11:57:34;;;;;;;;;;;;;;;5.37;67.03;101991.63;8180477;28;19992;-79
2022/01/12 12:01:44;;;;;;;;;;;;;;;5.49;64.70;102002.13;8192932;28;19938;-80
2022/01/12 12:05:46;;;;;;;;;;;;;;;5.88;65.21;101995.28;8195693;28;20291;-79
2022/01/12 12:09:52;;;;;;;;;;;;;;;6.25;63.70;101994.06;8199097;28;19930;-80
2022/01/12 12:13:58;;;;;;;;;;;;;;;6.32;64.21;101987.72;8180193;28;19994;-81
2022/01/12 12:18:04;;;;;;;;;;;;;;;6.68;62.11;101987.41;8199517;28;19942;-80
2022/01/12 12:22:14;;;;;;;;;;;;;;;6.96;59.18;101995.28;8178874;28;20347;-81
2022/01/12 12:26:18;;;;;;;;;;;;;;;7.65;62.94;101999.25;8191566;28;19927;-80
2022/01/12 12:30:20;;;;;;;;;;;;;;;7.79;58.34;101991.28;8184370;28;19931;-80
2022/01/12 12:34:23;;;;;;;;;;;;;;;8.30;58.25;101983.44;8157055;28;19972;-81
2022/01/12 12:38:24;;;;;;;;;;;;;;;8.38;59.04;101984.28;8175097;28;19998;-80
2022/01/12 12:42:26;;;;;;;;;;;;;;;8.30;57.41;101975.22;8176073;28;19922;-80
2022/01/12 12:46:29;;;;;;;;;;;;;;;8.44;56.32;101974.47;8199216;28;19926;-80
2022/01/12 12:50:32;;;;;;;;;;;;;;;8.17;53.33;101960.19;8196856;28;19929;-80
2022/01/12 12:54:34;;;;;;;;;;;;;;;7.60;55.81;101951.41;8185612;28;19927;-81
2022/01/12 12:58:39;;;;;;;;;;;;;;;7.28;57.33;101956.81;8172452;28;19934;-80
2022/01/12 13:02:41;;;;;;;;;;;;;;;7.00;58.16;101961.88;8197343;28;20021;-80
2022/01/12 13:06:43;;;;;;;;;;;;;;;7.55;58.52;101968.41;8190673;28;19929;-80
2022/01/12 13:10:44;;;;;;;;;;;;;;;7.66;57.13;101959.78;8179710;28;19927;-80
2022/01/12 13:14:47;;;;;;;;;;;;;;;7.58;57.55;101962.56;8189316;28;19932;-80
2022/01/12 13:18:49;;;;;;;;;;;;;;;7.41;58.89;101966.41;8178856;28;19926;-79
2022/01/12 13:22:51;;;;;;;;;;;;;;;7.28;58.05;101967.78;8190173;28;19922;-82
2022/01/12 13:26:55;;;;;;;;;;;;;;;6.94;57.78;101980.91;8172256;28;19927;-80
2022/01/12 13:31:01;;;;;;;;;;;;;;;6.88;58.17;101989.81;8164690;28;19922;-80
2022/01/12 13:35:08;;;;;;;;;;;;;;;6.66;59.85;101991.34;8193087;28;20340;-81
2022/01/12 13:39:11;;;;;;;;;;;;;;;6.16;58.19;101995.91;8198068;28;19969;-80
2022/01/12 13:43:12;;;;;;;;;;;;;;;5.81;59.71;101996.97;8165201;28;20013;-79
2022/01/12 13:47:23;;;;;;;;;;;;;;;5.56;60.04;102002.34;8187495;28;19929;-80
2022/01/12 13:51:37;;;;;;;;;;;;;;;5.45;61.36;102006.22;8192655;28;19945;-80
2022/01/12 13:55:52;;;;;;;;;;;;;;;5.37;61.35;101987.00;8194129;28;19930;-80
2022/01/12 13:59:54;;;;;;;;;;;;;;;5.17;62.29;101999.19;8173902;28;20317;-81
2022/01/12 14:04:06;;;;;;;;;;;;;;;5.16;61.79;101994.75;8179947;28;19930;-79
2022/01/12 14:08:13;;;;;;;;;;;;;;;4.91;63.26;102002.78;8193334;28;20498;-79
2022/01/12 14:12:16;;;;;;;;;;;;;;;4.84;63.80;101995.38;8199140;28;20718;-80
2022/01/12 14:16:19;;;;;;;;;;;;;;;4.66;63.70;101984.47;8194896;28;19965;-79
2022/01/12 14:20:37;;;;;;;;;;;;;;;4.61;64.94;101978.63;8189541;28;19929;-81
2022/01/12 14:24:38;;;;;;;;;;;;;;;4.56;65.07;101992.75;8194602;28;19977;-80
2022/01/12 14:28:41;;;;;;;;;;;;;;;4.54;64.89;101984.72;8198324;28;19922;-80
2022/01/12 14:32:44;;;;;;;;;;;;;;;4.50;66.25;101985.19;8196553;28;19926;-80
2022/01/12 14:36:45;;;;;;;;;;;;;;;4.53;65.49;101974.81;8184158;28;19922;-80
2022/01/12 14:40:47;;;;;;;;;;;;;;;4.52;65.41;101984.03;8193291;28;19922;-80
2022/01/12 14:44:49;;;;;;;;;;;;;;;4.42;65.61;101980.50;8175985;28;19934;-79
2022/01/12 14:48:52;;;;;;;;;;;;;;;4.40;65.66;101993.44;8188637;28;19985;-79
2022/01/12 14:52:55;;;;;;;;;;;;;;;4.36;66.90;101986.59;8184364;28;20315;-79
2022/01/12 14:57:16;;;;;;;;;;;;;;;4.31;66.86;101978.00;8183608;28;19934;-81
2022/01/12 15:01:19;;;;;;;;;;;;;;;4.19;66.60;101984.72;8195975;28;19926;-80
2022/01/12 15:05:46;;;;;;;;;;;;;;;4.06;67.08;101974.19;8183936;28;20016;-80
2022/01/12 15:09:48;;;;;;;;;;;;;;;4.05;67.19;101989.69;8193711;28;20017;-79
2022/01/12 15:13:59;;;;;;;;;;;;;;;4.10;67.63;101990.13;8173888;28;19974;-80
2022/01/12 15:18:01;;;;;;;;;;;;;;;4.06;68.11;101985.97;8190577;28;19942;-79
2022/01/12 15:22:03;;;;;;;;;;;;;;;4.03;68.72;101972.63;8182990;28;19926;-79
2022/01/12 15:26:05;;;;;;;;;;;;;;;3.94;69.22;101980.88;8188214;28;20570;-79
2022/01/12 15:30:08;;;;;;;;;;;;;;;3.84;71.23;101986.41;8169851;28;20013;-79
2022/01/12 15:34:15;;;;;;;;;;;;;;;3.78;72.16;101976.09;8179938;28;19926;-79
2022/01/12 15:38:17;;;;;;;;;;;;;;;3.73;73.42;101978.41;8192370;28;19962;-79
2022/01/12 15:42:23;;;;;;;;;;;;;;;3.68;73.00;101978.00;8184450;28;19958;-79
2022/01/12 15:46:30;;;;;;;;;;;;;;;3.65;73.78;101988.19;8195330;28;19926;-80
2022/01/12 15:50:34;;;;;;;;;;;;;;;3.59;74.30;101991.53;8188566;28;20035;-79
2022/01/12 15:54:36;;;;;;;;;;;;;;;3.54;75.07;101984.81;8190661;28;19922;-79
2022/01/12 15:58:37;;;;;;;;;;;;;;;3.46;74.90;101985.59;8156096;28;20364;-79
2022/01/12 16:02:39;;;;;;;;;;;;;;;3.42;75.55;101989.59;8184065;28;19934;-79
2022/01/12 16:06:41;;;;;;;;;;;;;;;3.41;75.85;101985.16;8182913;28;19989;-80
2022/01/12 16:10:43;;;;;;;;;;;;;;;3.41;76.47;101996.06;8197991;28;19923;-80
2022/01/12 16:14:46;;;;;;;;;;;;;;;3.38;76.81;102005.41;8194136;28;19977;-80
2022/01/12 16:18:48;;;;;;;;;;;;;;;3.42;76.63;102008.66;8205507;28;20346;-79
2022/01/12 16:22:49;;;;;;;;;;;;;;;3.45;77.11;102008.41;8206949;28;19922;-80
2022/01/12 16:26:51;;;;;;;;;;;;;;;3.51;77.94;102020.56;8208885;28;19926;-80
2022/01/12 16:30:54;;;;;;;;;;;;;;;3.55;77.76;102022.84;8189882;28;19934;-80
2022/01/12 16:34:58;;;;;;;;;;;;;;;3.61;77.25;102027.69;8201274;28;19976;-79
2022/01/12 16:39:00;;;;;;;;;;;;;;;3.64;77.48;102016.47;8200452;28;19922;-80
2022/01/12 16:43:02;;;;;;;;;;;;;;;3.70;77.65;102019.63;8191281;28;20000;-79
2022/01/12 16:47:04;;;;;;;;;;;;;;;3.74;77.66;102007.41;8193839;28;19990;-79
2022/01/12 16:51:07;;;;;;;;;;;;;;;3.78;78.24;102006.09;8201762;28;20420;-78
2022/01/12 16:55:10;;;;;;;;;;;;;;;3.80;77.73;102001.34;8187762;28;20281;-79
2022/01/12 16:59:12;;;;;;;;;;;;;;;3.85;78.59;102018.97;8209806;28;20364;-79
2022/01/12 17:03:15;;;;;;;;;;;;;;;3.89;78.84;102020.38;8199317;28;19930;-79
2022/01/12 17:07:18;;;;;;;;;;;;;;;3.91;79.32;102019.38;8196953;28;20367;-79
2022/01/12 17:11:19;;;;;;;;;;;;;;;3.93;79.77;102022.81;8209642;28;19922;-80
2022/01/12 17:15:46;;;;;;;;;;;;;;;3.88;78.11;102026.00;8210586;28;19933;-79
2022/01/12 17:19:49;;;;;;;;;;;;;;;3.80;79.29;102025.88;8208847;28;19928;-80
2022/01/12 17:24:02;;;;;;;;;;;;;;;3.83;78.97;102042.78;8196171;28;19926;-80
2022/01/12 17:28:19;;;;;;;;;;;;;;;3.88;80.12;102066.91;8184737;28;19926;-80
2022/01/12 17:32:22;;;;;;;;;;;;;;;3.90;80.95;102048.53;8203634;28;19966;-79
2022/01/12 17:36:33;;;;;;;;;;;;;;;3.94;79.46;102051.81;8200620;28;19941;-80
2022/01/12 17:40:40;;;;;;;;;;;;;;;3.96;80.05;102056.09;8207004;28;20570;-79
2022/01/12 17:44:43;;;;;;;;;;;;;;;3.99;79.39;102044.03;8204072;28;19976;-80
2022/01/12 17:48:47;;;;;;;;;;;;;;;4.01;79.68;102048.28;8202640;28;19926;-82
2022/01/12 17:52:48;;;;;;;;;;;;;;;4.01;79.96;102069.25;8200788;28;19976;-80
2022/01/12 17:56:51;;;;;;;;;;;;;;;4.02;80.25;102060.94;8201255;28;19966;-79
2022/01/12 18:00:52;;;;;;;;;;;;;;;4.02;80.22;102069.13;8194825;28;19985;-79
2022/01/12 18:04:54;;;;;;;;;;;;;;;4.03;80.24;102062.66;8204130;28;19962;-79
2022/01/12 18:08:55;;;;;;;;;;;;;;;4.04;79.71;102063.50;8198547;28;19931;-79
2022/01/12 18:12:57;;;;;;;;;;;;;;;4.01;80.76;102075.56;8193543;28;19933;-79
2022/01/12 18:16:58;;;;;;;;;;;;;;;4.02;80.28;102074.59;8192324;28;19969;-80
2022/01/12 18:21:00;;;;;;;;;;;;;;;4.02;80.42;102071.84;8200327;28;19980;-79
2022/01/12 18:25:03;;;;;;;;;;;;;;;3.98;78.97;102081.34;8194440;28;20350;-79
2022/01/12 18:29:07;;;;;;;;;;;;;;;3.94;79.83;102079.94;8193968;28;19926;-79
2022/01/12 18:33:09;;;;;;;;;;;;;;;3.93;79.98;102077.38;8194117;28;19929;-79
2022/01/12 18:37:10;;;;;;;;;;;;;;;3.91;80.86;102072.06;8197632;28;19981;-81
2022/01/12 18:41:13;;;;;;;;;;;;;;;3.86;81.07;102080.66;8203748;28;19922;-80
2022/01/12 18:45:17;;;;;;;;;;;;;;;3.82;81.63;102083.88;8193653;28;19926;-80
2022/01/12 18:49:19;;;;;;;;;;;;;;;3.73;81.93;102077.44;8182636;28;20020;-79
2022/01/12 18:53:21;;;;;;;;;;;;;;;3.67;82.12;102066.28;8174030;28;19956;-80
2022/01/12 18:57:23;;;;;;;;;;;;;;;3.54;82.55;102078.38;8177283;28;19933;-81
2022/01/12 19:01:28;;;;;;;;;;;;;;;3.49;81.83;102090.72;8189536;28;19930;-81
2022/01/12 19:05:33;;;;;;;;;;;;;;;3.41;82.60;102092.31;8193635;28;19927;-80
2022/01/12 19:09:37;;;;;;;;;;;;;;;3.32;82.88;102106.81;8193477;28;19927;-81
2022/01/12 19:13:42;;;;;;;;;;;;;;;3.26;83.13;102109.28;8191668;28;19926;-82
2022/01/12 19:17:43;;;;;;;;;;;;;;;3.18;83.18;102123.63;8193330;28;20368;-81
2022/01/12 19:21:45;;;;;;;;;;;;;;;3.06;83.15;102120.19;8192682;28;19992;-81
2022/01/12 19:25:48;;;;;;;;;;;;;;;2.93;83.69;102122.34;8192176;28;20376;-81
2022/01/12 19:29:49;;;;;;;;;;;;;;;2.82;83.92;102127.94;8189276;28;19941;-81
2022/01/12 19:33:51;;;;;;;;;;;;;;;2.69;83.94;102120.03;8193082;28;19960;-82
2022/01/12 19:37:53;;;;;;;;;;;;;;;2.52;83.83;102118.88;8194892;28;19930;-81
2022/01/12 19:41:54;;;;;;;;;;;;;;;2.34;83.97;102123.28;8194052;28;19922;-81
2022/01/12 19:45:56;;;;;;;;;;;;;;;2.17;84.85;102133.84;8200416;28;19958;-81
2022/01/12 19:49:57;;;;;;;;;;;;;;;1.99;84.80;102138.19;8201482;28;20357;-81
2022/01/12 19:54:02;;;;;;;;;;;;;;;1.83;85.53;102142.28;8201122;28;19933;-81
2022/01/12 19:58:06;;;;;;;;;;;;;;;1.69;85.25;102129.03;8195868;28;20395;-81
2022/01/12 20:02:27;;;;;;;;;;;;;;;1.55;85.59;102127.56;8190913;29;20017;-81
2022/01/12 20:06:31;;;;;;;;;;;;;;;1.42;86.29;102132.31;8192625;28;20387;-80
2022/01/12 20:10:34;;;;;;;;;;;;;;;1.32;86.69;102140.41;8200681;28;19930;-80
2022/01/12 20:14:37;;;;;;;;;;;;;;;1.24;86.80;102140.19;8194533;28;19986;-78
2022/01/12 20:23:17;;;;;;;;;;;;;;;1.10;87.56;102144.13;8199369;28;19965;-80
2022/01/12 20:27:27;;;;;;;;;;;;;;;1.03;87.57;102145.63;8199134;28;20585;-80
2022/01/12 20:31:52;;;;;;;;;;;;;;;0.95;87.93;102148.09;8174819;28;19941;-80
2022/01/12 20:35:54;;;;;;;;;;;;;;;0.89;87.77;102141.38;8198921;28;19923;-80
2022/01/12 20:39:56;;;;;;;;;;;;;;;0.85;88.42;102145.31;8197968;28;19977;-79
2022/01/12 20:43:57;;;;;;;;;;;;;;;0.83;88.86;102155.47;8201506;28;19933;-79
2022/01/12 20:47:59;;;;;;;;;;;;;;;0.82;88.94;102158.28;8196421;28;19930;-79
2022/01/12 20:52:01;;;;;;;;;;;;;;;0.79;89.25;102159.41;8199776;28;19970;-79
2022/01/12 20:56:02;;;;;;;;;;;;;;;0.75;89.24;102159.81;8188755;28;19968;-79
2022/01/12 21:00:05;;;;;;;;;;;;;;;0.71;89.18;102159.19;8200126;28;20336;-81
2022/01/12 21:04:06;;;;;;;;;;;;;;;0.68;90.02;102170.28;8190351;28;19934;-79
2022/01/12 21:08:08;;;;;;;;;;;;;;;0.62;90.70;102168.09;8152304;28;19926;-80
2022/01/12 21:12:11;;;;;;;;;;;;;;;0.56;90.17;102176.75;8197571;28;19984;-79
2022/01/12 21:16:17;;;;;;;;;;;;;;;0.49;91.63;102189.09;8187914;28;19923;-79
2022/01/12 21:20:19;;;;;;;;;;;;;;;0.37;91.37;102185.53;8190101;28;19922;-79
2022/01/12 21:24:26;;;;;;;;;;;;;;;0.24;94.04;102191.09;8182655;28;19931;-78
2022/01/12 21:28:28;;;;;;;;;;;;;;;0.20;92.90;102192.31;8175790;28;20304;-79
2022/01/12 21:32:29;;;;;;;;;;;;;;;0.18;92.52;102173.47;8181781;28;19926;-79
2022/01/12 21:36:31;;;;;;;;;;;;;;;0.18;93.19;102168.06;8192880;28;20303;-79
2022/01/12 21:40:39;;;;;;;;;;;;;;;0.21;92.86;102161.53;8196835;28;19930;-79
2022/01/12 21:44:41;;;;;;;;;;;;;;;0.17;93.47;102173.59;8195349;28;19997;-80
2022/01/12 21:48:42;;;;;;;;;;;;;;;0.15;94.08;102175.56;8201067;28;20683;-80
2022/01/12 21:52:44;;;;;;;;;;;;;;;0.13;95.33;102182.97;8198451;28;19926;-80
2022/01/12 21:56:46;;;;;;;;;;;;;;;0.11;94.08;102190.34;8197970;28;19969;-79
2022/01/12 22:00:48;;;;;;;;;;;;;;;0.10;95.24;102194.91;8182969;28;20036;-78
2022/01/12 22:04:51;;;;;;;;;;;;;;;0.10;94.51;102180.50;8198232;28;19922;-79
2022/01/12 22:08:53;;;;;;;;;;;;;;;0.10;95.04;102181.38;8195623;28;19923;-79
2022/01/12 22:12:54;;;;;;;;;;;;;;;0.11;94.56;102174.09;8182172;28;19930;-80
2022/01/12 22:16:56;;;;;;;;;;;;;;;0.06;94.19;102170.88;8192066;28;19934;-79
2022/01/12 22:20:57;;;;;;;;;;;;;;;0.02;95.35;102177.53;8185632;28;19977;-80
2022/01/12 22:24:59;;;;;;;;;;;;;;;0.04;95.31;102172.88;8200002;28;19961;-79
2022/01/12 22:29:02;;;;;;;;;;;;;;;0.03;95.41;102155.75;8200784;28;19927;-79